Terminal Aerodrome Forecast
Issued by NWS Amarillo, TX

Home | Current Version | Previous Version | Text Only | Print | Product List | Glossary On
Versions: 1 2 3 4 5 6 7 8 9 10 11 12 13
163
FTUS44 KAMA 250610 RRA
TAFAMA
TAF
KAMA 250610Z 2506/2606 32012KT P6SM SCT090 BKN300
     FM250800 01008KT P6SM SCT090 BKN300
     FM251200 VRB06KT P6SM SCT120 BKN300
     FM251700 10010KT P6SM SCT120 BKN300=

USA.gov is the U.S. government's official web portal to all federal, state and local government web resources and services.